createdAt,value
2022-08-17T15:34:41.711Z,18.10
2022-08-17T15:37:28.316Z,17.10
2022-08-17T15:40:11.719Z,22.70
2022-08-17T15:42:54.160Z,19.40
2022-08-17T15:45:36.061Z,20.90
2022-08-17T15:48:18.809Z,15.50
2022-08-17T15:51:01.173Z,17.60
2022-08-17T15:53:45.630Z,16.60
2022-08-17T15:56:28.772Z,22.30
2022-08-17T15:59:10.650Z,20.10
2022-08-17T16:03:13.943Z,18.10
2022-08-17T16:05:06.051Z,20.40
2022-08-17T16:07:53.605Z,16.30
2022-08-17T16:10:36.516Z,17.60
2022-08-17T16:13:19.657Z,17.40
2022-08-17T16:16:01.552Z,18.30
2022-08-17T16:18:43.753Z,16.80
2022-08-17T16:21:26.073Z,19.30
2022-08-17T16:24:13.618Z,17.20
2022-08-17T16:26:57.119Z,19.10
2022-08-17T16:29:40.392Z,25.90
2022-08-17T16:32:31.692Z,35.60
2022-08-17T16:35:18.681Z,44.10
2022-08-17T16:38:00.683Z,42.60
2022-08-17T16:40:42.879Z,34.80
2022-08-17T16:43:24.775Z,26.10
2022-08-17T16:46:06.671Z,33.10
2022-08-17T16:48:48.570Z,40.10
2022-08-17T16:51:31.486Z,25.10
2022-08-17T16:54:17.590Z,22.60
2022-08-17T16:56:59.630Z,26.70
2022-08-17T16:59:44.949Z,23.20
2022-08-17T17:02:34.428Z,24.20
2022-08-17T17:05:58.073Z,17.70
2022-08-17T17:08:48.588Z,18.30
2022-08-17T17:11:42.274Z,17.00
2022-08-17T17:14:32.054Z,15.70
2022-08-17T17:17:28.183Z,21.20
2022-08-17T17:20:18.373Z,18.30
2022-08-17T17:23:09.712Z,25.40
2022-08-17T17:26:03.772Z,28.80
2022-08-17T17:28:59.122Z,29.90
2022-08-17T17:32:21.225Z,26.10
2022-08-17T17:35:09.440Z,21.60
2022-08-17T17:37:57.407Z,21.70
2022-08-17T17:40:44.420Z,21.40
2022-08-17T17:43:38.931Z,22.10
2022-08-17T17:46:35.550Z,17.30
2022-08-17T17:49:18.717Z,22.10
2022-08-17T17:52:15.627Z,18.30
2022-08-17T17:55:28.496Z,24.30
2022-08-17T17:58:36.657Z,18.20
2022-08-17T18:01:30.776Z,18.90
2022-08-17T18:04:23.796Z,18.00
2022-08-17T18:07:25.046Z,18.20
2022-08-17T18:10:45.299Z,18.70
2022-08-17T18:13:43.825Z,22.60
2022-08-17T18:16:27.975Z,20.50
2022-08-17T18:19:15.918Z,18.60
2022-08-17T18:22:04.259Z,17.80
2022-08-17T18:24:56.119Z,24.90
2022-08-17T18:27:40.967Z,19.50
2022-08-17T18:30:29.064Z,27.40
2022-08-17T18:33:26.690Z,17.20
2022-08-17T18:36:09.373Z,17.60
2022-08-17T18:39:12.170Z,21.50
2022-08-17T18:41:57.153Z,17.20
2022-08-17T18:44:39.128Z,19.20
2022-08-17T18:47:26.242Z,26.70
2022-08-17T18:50:43.875Z,20.50
2022-08-17T18:53:30.384Z,25.50
2022-08-17T18:56:17.922Z,26.50
2022-08-17T18:59:10.082Z,21.40
2022-08-17T19:02:10.066Z,25.10
2022-08-17T19:05:17.458Z,21.80
2022-08-17T19:08:18.143Z,28.70
2022-08-17T19:11:07.669Z,33.00
2022-08-17T19:14:02.370Z,25.50
2022-08-17T19:16:54.707Z,22.00
2022-08-17T19:20:06.399Z,32.40
2022-08-17T19:22:58.960Z,31.10
2022-08-17T19:25:50.261Z,27.50
2022-08-17T19:29:02.879Z,35.60
2022-08-17T19:31:48.155Z,32.40
2022-08-17T19:34:34.449Z,40.10
2022-08-17T19:37:43.382Z,42.20
2022-08-17T19:41:05.294Z,53.90
2022-08-17T19:44:17.930Z,52.50
2022-08-17T19:47:43.091Z,43.20
2022-08-17T19:50:56.371Z,51.00
2022-08-17T19:54:06.612Z,52.20
2022-08-17T19:56:56.052Z,57.20
2022-08-17T19:59:49.548Z,37.10
2022-08-17T20:03:16.548Z,47.30
2022-08-17T20:06:18.328Z,31.90
2022-08-17T20:09:22.507Z,35.70
2022-08-17T20:12:11.608Z,32.40
2022-08-17T20:15:00.351Z,38.50
2022-08-17T20:17:46.471Z,36.40
2022-08-17T20:20:59.255Z,30.80
2022-08-17T20:23:59.674Z,36.90
2022-08-17T20:26:55.454Z,29.90
2022-08-17T20:29:55.315Z,32.30
2022-08-17T20:32:55.752Z,27.40
2022-08-17T20:35:39.377Z,33.00
2022-08-17T20:38:50.558Z,30.60
2022-08-17T20:42:03.239Z,29.10
2022-08-17T20:44:46.413Z,29.70
2022-08-17T20:48:00.799Z,29.70
2022-08-17T20:51:02.465Z,28.50
2022-08-17T20:53:47.487Z,30.50
2022-08-17T20:56:44.742Z,28.80
2022-08-17T20:59:27.867Z,25.70
2022-08-17T21:02:19.386Z,28.20
2022-08-17T21:05:07.315Z,38.60
2022-08-17T21:07:56.401Z,31.40
2022-08-17T21:10:40.686Z,25.70
2022-08-17T21:13:46.705Z,24.50
2022-08-17T21:16:36.485Z,25.60
2022-08-17T21:19:54.176Z,44.30
2022-08-17T21:22:55.112Z,41.60
2022-08-17T21:26:14.537Z,47.30
2022-08-17T21:29:32.505Z,60.30
2022-08-17T21:32:24.348Z,28.60
2022-08-17T21:35:07.126Z,46.30
2022-08-17T21:37:53.269Z,38.40
2022-08-17T21:40:35.421Z,39.00
2022-08-17T21:43:29.606Z,30.10
2022-08-17T21:46:27.526Z,28.20
2022-08-17T21:49:14.260Z,24.10
2022-08-17T21:51:59.461Z,26.10
2022-08-17T21:54:49.625Z,29.90
2022-08-17T21:57:35.103Z,28.50
2022-08-17T22:00:29.312Z,25.40
2022-08-17T22:03:24.877Z,29.30
2022-08-17T22:06:24.202Z,24.80
2022-08-17T22:09:26.098Z,26.20
2022-08-17T22:12:11.402Z,23.20
2022-08-17T22:15:06.379Z,25.90
2022-08-17T22:17:48.888Z,25.60
2022-08-17T22:20:31.090Z,27.10
2022-08-17T22:23:33.056Z,30.30
2022-08-17T22:26:18.074Z,30.70
2022-08-17T22:29:00.227Z,26.60
2022-08-17T22:32:08.544Z,26.80
2022-08-17T22:35:16.345Z,25.70
2022-08-17T22:38:18.056Z,27.80
2022-08-17T22:41:26.114Z,27.30
2022-08-17T22:44:28.363Z,31.00
2022-08-17T22:47:21.254Z,25.80
2022-08-17T22:50:12.150Z,28.10
2022-08-17T22:53:20.571Z,30.00
2022-08-17T22:56:22.223Z,28.70
2022-08-17T22:59:20.606Z,28.60
2022-08-17T23:02:24.112Z,26.90
2022-08-17T23:05:10.310Z,28.70
2022-08-17T23:07:53.213Z,34.00
2022-08-17T23:10:36.193Z,29.50
2022-08-17T23:13:18.553Z,29.60
2022-08-17T23:16:00.601Z,31.90
2022-08-17T23:18:42.549Z,29.10
2022-08-17T23:21:29.769Z,28.90
2022-08-17T23:24:17.123Z,29.10
2022-08-17T23:26:59.238Z,28.90
2022-08-17T23:29:42.421Z,31.50
2022-08-17T23:32:25.033Z,29.40
2022-08-17T23:35:09.417Z,29.20
2022-08-17T23:37:52.397Z,34.00
2022-08-17T23:40:34.715Z,29.10
2022-08-17T23:43:25.203Z,38.60
2022-08-17T23:46:07.823Z,33.10
2022-08-17T23:48:53.713Z,35.50
2022-08-17T23:51:42.696Z,30.90
2022-08-17T23:54:27.601Z,32.30
2022-08-17T23:57:15.934Z,29.50
2022-08-17T23:59:57.990Z,29.90
